Latest Weather Observations for Gladstone Airport

IDQ60801

Issued at 4:13 pm EST Thursday 28 January 2021 (issued every 10 minutes, with the page automatically refreshed every 10 minutes)

About weather observations | Map of weather stations | Latest weather observations for QLD | Other Formats
Station Details ID: 039326 Name: GLADSTONE AIRPORT Lat: -23.87 Lon: 151.22 Height: 16.6 m
Data from the previous 72 hours. | See also: Recent months at Gladstone Airport
Date/Time
EST
Temp
°C
App
Temp
°C
Dew
Point
°C
Rel
Hum
%
Delta-T
°C
Wind Press
QNH
hPa
Press
MSL
hPa
Rain since
9am
mm
Dir  Spd
km/h
Gust
km/h
Spd
kts
Gust
kts
28/04:00pm 29.1 25.2 20.3 59 5.8 E 41 50 22 27 1007.2 1007.1 0.0
28/03:40pm 30.0 27.3 20.5 56 6.3 E 35 54 19 29 1007.3 1007.2 0.0
28/03:30pm 29.8 26.7 20.4 57 6.2 E 37 52 20 28 1007.3 1007.2 0.0
28/03:00pm 29.2 26.3 20.1 58 6.0 E 35 44 19 24 1007.5 1007.4 0.0
28/02:30pm 29.6 25.7 18.7 52 7.0 E 37 52 20 28 1007.5 1007.4 0.0
28/02:22pm 30.4 27.8 20.0 53 6.9 E 33 52 18 28 1007.5 1007.4 0.0
28/02:00pm 29.5 27.2 20.1 57 6.2 E 32 41 17 22 1007.8 1007.7 0.0
28/01:30pm 30.5 29.5 20.4 54 6.7 ESE 26 41 14 22 1008.2 1008.1 0.0
28/01:00pm 30.8 29.1 19.8 52 7.2 E 28 39 15 21 1008.6 1008.5 0.0
28/12:30pm 29.9 27.1 18.3 49 7.4 ESE 30 41 16 22 1009.0 1008.9 0.0
28/12:00pm 28.9 24.7 18.1 52 6.9 ESE 37 46 20 25 1009.0 1008.9 0.0
28/11:30am 30.5 28.7 20.4 54 6.7 E 30 41 16 22 1009.2 1009.1 0.0
28/11:00am 29.9 27.7 19.6 54 6.7 E 30 39 16 21 1009.6 1009.5 0.0
28/10:30am 28.3 27.7 19.8 60 5.5 E 22 30 12 16 1009.7 1009.6 0.0
28/10:00am 29.1 26.6 18.8 53 6.7 ESE 30 39 16 21 1009.8 1009.7 0.0
28/09:30am 28.5 27.8 19.4 57 5.9 ESE 22 32 12 17 1009.9 1009.8 0.0
28/09:00am 28.0 27.7 20.3 63 5.1 SE 22 32 12 17 1010.0 1009.9 0.4
28/08:30am 26.1 27.4 20.9 73 3.4 SE 15 22 8 12 1009.9 1009.8 0.4
28/08:00am 24.3 25.7 21.0 82 2.2 SSE 15 22 8 12 1009.8 1009.7 0.4
28/07:42am 23.8 24.1 20.7 83 2.0 SE 20 32 11 17 1010.1 1010.0 0.2
28/07:30am 24.9 25.3 19.9 74 3.2 SE 17 30 9 16 1010.0 1009.9 0.0
28/07:00am 25.2 26.4 19.8 72 3.5 SSE 13 20 7 11 1009.4 1009.3 0.0
28/06:30am 24.5 25.7 19.8 75 3.0 SSE 13 24 7 13 1009.1 1009.0 0.0
28/06:00am 24.5 25.7 19.8 75 3.0 SSE 13 24 7 13 1008.7 1008.6 0.0
28/05:30am 24.3 25.8 19.8 76 2.9 SSE 11 20 6 11 1008.3 1008.2 0.0
28/05:00am 24.2 25.8 19.9 77 2.8 SSE 11 17 6 9 1008.1 1008.0 0.0
28/04:30am 24.3 25.0 20.4 79 2.5 SE 17 24 9 13 1007.9 1007.8 0.0
28/04:00am 24.2 26.3 20.1 78 2.7 SSE 9 17 5 9 1007.6 1007.5 0.0
28/03:30am 24.5 26.6 20.2 77 2.8 SE 9 13 5 7 1007.6 1007.5 0.0
28/03:00am 24.5 27.2 20.2 77 2.8 S 6 9 3 5 1007.7 1007.6 0.0
28/02:30am 24.8 27.3 20.3 76 2.9 SSE 7 11 4 6 1007.6 1007.5 0.0
28/02:00am 25.1 27.3 20.4 75 3.1 SE 9 13 5 7 1007.7 1007.6 0.0
28/01:30am 25.3 26.8 20.5 75 3.1 SE 13 17 7 9 1007.7 1007.6 0.0
28/01:00am 25.6 26.9 20.8 75 3.2 SE 15 20 8 11 1007.9 1007.8 0.0
28/12:30am 25.8 27.1 20.8 74 3.3 SE 15 19 8 10 1008.1 1008.0 0.0
28/12:00am 25.8 27.4 20.8 74 3.3 SE 13 19 7 10 1008.2 1008.1 0.0
 
Date/Time
EST
Temp
°C
App
Temp
°C
Dew
Point
°C
Rel
Hum
%
Delta-T
°C
Wind Press
QNH
hPa
Press
MSL
hPa
Rain since
9am
mm
Dir  Spd
km/h
Gust
km/h
Spd
kts
Gust
kts
27/11:30pm 26.2 27.5 20.8 72 3.6 SE 15 20 8 11 1008.7 1008.6 0.0
27/11:00pm 26.4 26.9 20.9 72 3.6 ESE 19 28 10 15 1008.8 1008.7 0.0
27/10:30pm 26.3 27.9 20.8 71 3.6 ESE 13 19 7 10 1009.0 1008.9 0.0
27/10:00pm 26.6 27.0 20.9 71 3.8 ESE 20 24 11 13 1009.0 1008.9 0.0
27/09:30pm 26.6 26.9 20.7 70 3.9 ESE 20 28 11 15 1008.9 1008.8 0.0
27/09:00pm 26.8 25.9 20.6 69 4.1 ESE 26 37 14 20 1008.7 1008.6 0.0
27/08:30pm 26.9 26.9 21.0 70 3.9 ESE 22 30 12 16 1008.6 1008.5 0.0
27/08:00pm 27.0 27.3 20.8 69 4.1 E 20 28 11 15 1008.4 1008.3 0.0
27/07:30pm 27.1 27.5 20.9 69 4.1 E 20 28 11 15 1008.2 1008.1 0.0
27/07:00pm 27.1 27.3 21.4 71 3.8 E 22 33 12 18 1008.1 1008.0 0.0
27/06:30pm 27.3 26.5 20.9 68 4.2 E 26 33 14 18 1007.7 1007.6 0.0
27/06:00pm 27.9 25.6 20.2 63 5.1 E 32 44 17 24 1007.4 1007.3 0.0
27/05:30pm 28.7 28.5 21.2 64 5.0 E 24 32 13 17 1006.9 1006.8 0.0
27/05:00pm 29.3 28.4 21.5 63 5.2 E 28 39 15 21 1006.3 1006.2 0.0
27/04:30pm 29.3 27.4 21.3 62 5.3 ENE 33 43 18 23 1006.1 1006.0 0.0
27/04:00pm 29.6 27.7 21.0 60 5.7 ENE 32 43 17 23 1005.9 1005.8 0.0
27/03:30pm 29.8 27.6 20.4 57 6.2 ENE 32 39 17 21 1006.1 1006.0 0.0
27/03:00pm 30.2 28.4 20.4 55 6.5 ENE 30 39 16 21 1006.1 1006.0 0.0
27/02:30pm 30.3 28.9 20.5 55 6.5 ENE 28 37 15 20 1006.4 1006.3 0.0
27/02:00pm 30.3 28.2 19.0 50 7.4 ENE 28 33 15 18 1006.5 1006.4 0.0
27/01:30pm 30.2 29.5 20.2 55 6.6 ENE 24 35 13 19 1006.7 1006.6 0.0
27/01:00pm 30.8 30.8 20.1 53 7.1 ENE 20 30 11 16 1006.9 1006.8 0.0
27/12:30pm 30.9 30.4 19.9 52 7.2 NE 22 32 12 17 1007.3 1007.2 0.0
27/12:00pm 29.9 30.0 19.9 55 6.6 NE 19 30 10 16 1007.5 1007.4 0.0
27/11:30am 30.6 30.5 19.9 52 7.0 E 20 30 11 16 1007.6 1007.5 0.0
27/11:00am 30.2 30.2 18.9 50 7.3 E 17 28 9 15 1008.0 1007.9 0.0
27/10:30am 29.4 29.2 18.5 52 7.0 E 17 26 9 14 1008.2 1008.1 0.0
27/10:00am 29.1 29.7 19.4 55 6.3 ENE 15 24 8 13 1008.5 1008.4 0.0
27/09:30am 29.2 29.7 19.2 54 6.5 ENE 15 20 8 11 1008.4 1008.3 0.0
27/09:00am 28.5 30.1 19.2 57 6.0 ESE 9 19 5 10 1008.3 1008.2 0.0
27/08:30am 27.8 29.2 20.4 64 4.9 E 13 19 7 10 1008.3 1008.2 0.0
27/08:00am 27.2 28.4 20.0 64 4.7 ESE 13 19 7 10 1008.4 1008.3 0.0
27/07:30am 26.6 28.3 20.2 68 4.2 SE 11 19 6 10 1008.1 1008.0 0.0
27/07:00am 24.8 27.3 20.3 76 2.9 SSW 7 9 4 5 1007.8 1007.7 0.0
27/06:30am 23.4 25.5 20.2 82 2.1 SSW 9 11 5 6 1007.6 1007.5 0.0
27/06:00am 22.5 25.8 19.9 85 1.7 SSW 2 7 1 4 1007.4 1007.3 0.0
27/05:30am 22.1 23.9 19.6 86 1.6 SSW 9 9 5 5 1006.8 1006.7 0.0
27/05:00am 22.4 25.3 19.8 85 1.7 S 4 7 2 4 1006.5 1006.4 0.0
27/04:30am 22.5 24.7 19.7 84 1.8 SSW 7 11 4 6 1006.2 1006.1 0.0
27/04:00am 23.0 25.4 20.0 83 1.9 S 7 9 4 5 1006.0 1005.9 0.0
27/03:30am 23.4 25.8 20.0 81 2.2 S 7 9 4 5 1006.2 1006.1 0.0
27/03:00am 23.7 26.1 20.0 80 2.4 S 7 9 4 5 1006.3 1006.2 0.0
27/02:30am 24.2 26.3 20.1 78 2.7 SSE 9 11 5 6 1006.4 1006.3 0.0
27/02:00am 24.6 27.1 20.3 77 2.8 SSE 7 9 4 5 1006.6 1006.5 0.0
27/01:30am 25.8 28.6 20.4 72 3.5 ESE 6 9 3 5 1006.8 1006.7 0.0
27/01:00am 25.7 27.9 20.5 73 3.4 ENE 9 13 5 7 1007.3 1007.2 0.0
27/12:30am 26.0 28.7 20.6 72 3.5 ENE 7 11 4 6 1007.5 1007.4 0.0
27/12:00am 25.9 27.2 20.2 71 3.7 ENE 13 17 7 9 1007.8 1007.7 0.0
 
Date/Time
EST
Temp
°C
App
Temp
°C
Dew
Point
°C
Rel
Hum
%
Delta-T
°C
Wind Press
QNH
hPa
Press
MSL
hPa
Rain since
9am
mm
Dir  Spd
km/h
Gust
km/h
Spd
kts
Gust
kts
26/11:30pm 26.0 27.8 20.3 71 3.7 ENE 11 15 6 8 1007.9 1007.8 0.0
26/11:00pm 26.1 27.5 20.4 71 3.7 ENE 13 19 7 10 1008.0 1007.9 0.0
26/10:30pm 26.2 27.7 20.5 71 3.7 ENE 13 19 7 10 1008.2 1008.1 0.0
26/10:00pm 26.2 27.7 20.5 71 3.7 ENE 13 17 7 9 1008.2 1008.1 0.0
26/09:30pm 26.3 27.4 20.4 70 3.9 ENE 15 19 8 10 1007.9 1007.8 0.0
26/09:00pm 26.3 27.8 20.6 71 3.7 ENE 13 19 7 10 1007.7 1007.6 0.0
26/08:30pm 26.4 27.7 20.9 72 3.6 NE 15 22 8 12 1007.4 1007.3 0.0
26/08:00pm 26.4 27.2 20.7 71 3.8 ENE 17 24 9 13 1006.8 1006.7 0.0
26/07:30pm 26.5 27.8 20.8 71 3.8 ENE 15 22 8 12 1006.5 1006.4 0.0
26/07:00pm 26.7 27.3 21.0 71 3.8 ENE 19 24 10 13 1006.1 1006.0 0.0
26/06:30pm 26.9 27.3 21.0 70 3.9 ENE 20 26 11 14 1005.7 1005.6 0.0
26/06:00pm 27.4 27.7 20.7 67 4.4 ENE 20 24 11 13 1005.3 1005.2 0.0
26/05:30pm 27.7 27.3 21.0 67 4.4 ENE 24 32 13 17 1004.9 1004.8 0.0
26/05:00pm 27.9 27.4 20.7 65 4.8 ENE 24 32 13 17 1004.6 1004.5 0.0
26/04:30pm 28.5 28.0 20.8 63 5.1 ENE 24 30 13 16 1004.6 1004.5 0.0
26/04:00pm 28.5 28.5 21.0 64 5.0 NE 22 39 12 21 1004.6 1004.5 0.0
26/03:30pm 29.3 28.8 20.7 59 5.7 ENE 24 32 13 17 1004.7 1004.6 0.0
26/03:00pm 29.8 29.9 21.2 60 5.8 ENE 22 30 12 16 1004.9 1004.8 0.0
26/02:30pm 29.5 28.9 20.4 58 6.0 ENE 24 32 13 17 1005.4 1005.3 0.0
26/02:00pm 29.7 29.0 20.3 57 6.2 NE 24 32 13 17 1005.5 1005.4 0.0
26/01:30pm 29.7 28.9 18.5 51 7.2 NE 20 32 11 17 1005.8 1005.7 0.0
26/01:00pm 30.1 29.7 18.8 50 7.3 NE 19 24 10 13 1006.2 1006.1 0.0
26/12:30pm 29.4 28.9 19.1 54 6.7 NNE 20 28 11 15 1006.8 1006.7 0.0
26/12:00pm 29.8 29.6 18.6 51 7.2 NE 17 26 9 14 1007.2 1007.1 0.0
26/11:30am 29.2 29.1 19.5 56 6.3 NE 19 26 10 14 1007.7 1007.6 0.0
26/11:00am 29.0 29.7 19.6 57 6.1 ENE 15 20 8 11 1007.9 1007.8 0.0
26/10:30am 28.7 29.1 19.1 56 6.2 E 15 22 8 12 1008.2 1008.1 0.0
26/10:00am 29.0 29.7 19.6 57 6.1 E 15 22 8 12 1008.3 1008.2 0.0
26/09:30am 28.5 29.0 19.2 57 6.0 E 15 22 8 12 1008.4 1008.3 0.0
26/09:00am 28.6 29.2 20.3 60 5.5 ESE 17 24 9 13 1008.3 1008.2 0.0
26/08:30am 27.1 27.8 19.7 64 4.8 ESE 15 20 8 11 1008.3 1008.2 0.0
26/08:00am 26.6 27.3 19.7 66 4.5 SE 15 24 8 13 1008.3 1008.2 0.0
26/07:30am 26.0 27.1 19.6 68 4.1 SE 13 19 7 10 1008.5 1008.4 0.0
26/07:00am 25.4 26.9 19.8 71 3.6 SE 11 15 6 8 1008.2 1008.1 0.0
26/06:30am 24.3 26.6 19.8 76 2.9 SSE 7 11 4 6 1007.8 1007.7 0.0
26/06:00am 22.9 25.8 19.9 83 1.9 S 4 7 2 4 1007.6 1007.5 0.0
26/05:30am 22.3 24.5 19.7 85 1.7 S 7 9 4 5 1007.2 1007.1 0.0
26/05:00am 22.3 24.6 19.5 84 1.8 SSW 6 9 3 5 1007.1 1007.0 0.0
26/04:30am 22.4 24.6 19.6 84 1.8 SSW 7 11 4 6 1006.9 1006.8 0.0
26/04:00am 23.2 25.8 20.0 82 2.1 SE 6 9 3 5 1006.7 1006.6 0.0
26/03:30am 22.9 25.4 19.9 83 1.9 S 6 7 3 4 1006.9 1006.8 0.0
26/03:00am 23.0 25.3 19.8 82 2.1 S 7 11 4 6 1007.1 1007.0 0.0
26/02:30am 23.4 25.7 19.8 80 2.3 S 7 11 4 6 1007.2 1007.1 0.0
26/02:00am 23.9 26.3 20.0 79 2.5 SSE 7 9 4 5 1007.6 1007.5 0.0
26/01:30am 24.2 26.5 19.9 77 2.8 SSE 7 9 4 5 1007.9 1007.8 0.0
26/01:00am 24.6 27.0 20.1 76 2.9 SE 7 9 4 5 1008.0 1007.9 0.0
26/12:30am 25.0 27.5 20.3 75 3.1 SSE 7 11 4 6 1008.4 1008.3 0.0
26/12:00am 25.8 27.6 20.4 72 3.5 ESE 11 17 6 9 1008.8 1008.7 0.0
 
Date/Time
EST
Temp
°C
App
Temp
°C
Dew
Point
°C
Rel
Hum
%
Delta-T
°C
Wind Press
QNH
hPa
Press
MSL
hPa
Rain since
9am
mm
Dir  Spd
km/h
Gust
km/h
Spd
kts
Gust
kts
25/11:30pm 25.9 27.8 20.5 72 3.5 ESE 11 15 6 8 1009.1 1009.0 0.0
25/11:00pm 25.6 27.4 20.4 73 3.4 E 11 17 6 9 1009.1 1009.0 0.0
25/10:30pm 25.9 26.9 20.2 71 3.7 ESE 15 20 8 11 1009.3 1009.2 0.0
25/10:00pm 26.0 26.4 19.9 69 4.0 E 17 24 9 13 1009.3 1009.2 0.0
25/09:30pm 26.1 26.2 20.0 69 4.0 E 19 24 10 13 1009.4 1009.3 0.0
25/09:00pm 26.1 25.8 19.5 67 4.3 E 20 28 11 15 1009.2 1009.1 0.0
25/08:30pm 26.1 25.6 19.2 65 4.4 E 20 26 11 14 1008.9 1008.8 0.0
25/08:00pm 26.2 26.0 19.8 68 4.2 E 20 28 11 15 1008.6 1008.5 0.0
25/07:30pm 26.3 25.5 19.2 65 4.6 E 22 32 12 17 1008.4 1008.3 0.0
25/07:00pm 26.5 25.8 19.6 66 4.5 E 22 32 12 17 1008.3 1008.2 0.0
25/06:30pm 26.7 25.3 19.6 65 4.6 E 26 35 14 19 1008.2 1008.1 0.0
25/06:00pm 27.2 25.6 19.3 62 5.1 E 26 37 14 20 1007.9 1007.8 0.0
25/05:30pm 28.0 25.6 19.2 58 5.7 E 30 41 16 22 1007.5 1007.4 0.0
25/05:00pm 27.8 25.4 19.1 59 5.6 ENE 30 41 16 22 1007.2 1007.1 0.0
25/04:30pm 28.6 26.3 18.4 54 6.5 ENE 28 37 15 20 1007.1 1007.0 0.0

Other formats

Comma delimited format used in spreadsheet applications
http://www.bom.gov.au/fwo/IDQ60801/IDQ60801.94381.axf

JavaScript Object Notation format (JSON) in row-major order
http://www.bom.gov.au/fwo/IDQ60801/IDQ60801.94381.json

Data quality

Most of these data are generated automatically and are frequently updated. Quality checks on data are not normally performed. It is possible for incorrect values to appear. Refer to information at About Latest Weather Observations and please check the disclaimer before using these data.